sensor_id;sensor_type;location;lat;lon;timestamp;pressure;altitude;pressure_sealevel;temperature;humidity
71573;BME280;59408;51.032;9.410;2023-01-31T00:01:36;99603.94;;;1.64;93.02
71573;BME280;59408;51.032;9.410;2023-01-31T00:04:05;99583.78;;;1.56;93.86
71573;BME280;59408;51.032;9.410;2023-01-31T00:06:33;99599.38;;;1.54;94.45
71573;BME280;59408;51.032;9.410;2023-01-31T00:09:02;99594.00;;;1.54;94.78
71573;BME280;59408;51.032;9.410;2023-01-31T00:11:29;99600.19;;;1.55;94.93
71573;BME280;59408;51.032;9.410;2023-01-31T00:13:57;99606.91;;;1.52;95.24
71573;BME280;59408;51.032;9.410;2023-01-31T00:16:25;99606.59;;;1.49;95.69
71573;BME280;59408;51.032;9.410;2023-01-31T00:18:52;99608.75;;;1.47;96.10
71573;BME280;59408;51.032;9.410;2023-01-31T00:21:20;99608.75;;;1.47;96.19
71573;BME280;59408;51.032;9.410;2023-01-31T00:23:47;99616.00;;;1.46;96.11
71573;BME280;59408;51.032;9.410;2023-01-31T00:26:16;99606.34;;;1.45;96.14
71573;BME280;59408;51.032;9.410;2023-01-31T00:28:44;99611.44;;;1.47;96.35
71573;BME280;59408;51.032;9.410;2023-01-31T00:31:12;99608.78;;;1.52;96.11
71573;BME280;59408;51.032;9.410;2023-01-31T00:33:42;99613.63;;;1.55;96.04
71573;BME280;59408;51.032;9.410;2023-01-31T00:36:10;99611.47;;;1.52;96.69
71573;BME280;59408;51.032;9.410;2023-01-31T00:38:38;99602.84;;;1.50;96.59
71573;BME280;59408;51.032;9.410;2023-01-31T00:41:04;99604.22;;;1.52;96.52
71573;BME280;59408;51.032;9.410;2023-01-31T00:43:31;99612.28;;;1.52;96.80
71573;BME280;59408;51.032;9.410;2023-01-31T00:45:58;99607.69;;;1.48;96.70
71573;BME280;59408;51.032;9.410;2023-01-31T00:48:25;99610.41;;;1.53;96.64
71573;BME280;59408;51.032;9.410;2023-01-31T00:50:53;99610.94;;;1.55;96.07
71573;BME280;59408;51.032;9.410;2023-01-31T00:53:20;99610.41;;;1.53;96.40
71573;BME280;59408;51.032;9.410;2023-01-31T00:55:47;99612.00;;;1.54;95.78
71573;BME280;59408;51.032;9.410;2023-01-31T00:58:14;99615.22;;;1.56;95.64
71573;BME280;59408;51.032;9.410;2023-01-31T01:00:40;99613.63;;;1.55;95.65
71573;BME280;59408;51.032;9.410;2023-01-31T01:03:07;99628.13;;;1.59;95.08
71573;BME280;59408;51.032;9.410;2023-01-31T01:05:33;99621.69;;;1.60;94.71
71573;BME280;59408;51.032;9.410;2023-01-31T01:08:02;99624.38;;;1.60;94.46
71573;BME280;59408;51.032;9.410;2023-01-31T01:10:29;99631.63;;;1.59;94.34
71573;BME280;59408;51.032;9.410;2023-01-31T01:12:56;99633.25;;;1.60;93.62
71573;BME280;59408;51.032;9.410;2023-01-31T01:15:22;99623.56;;;1.59;93.55
71573;BME280;59408;51.032;9.410;2023-01-31T01:17:49;99633.53;;;1.59;93.53
71573;BME280;59408;51.032;9.410;2023-01-31T01:20:16;99637.31;;;1.63;92.79
71573;BME280;59408;51.032;9.410;2023-01-31T01:22:43;99638.66;;;1.71;91.20
71573;BME280;59408;51.032;9.410;2023-01-31T01:25:11;99638.09;;;1.74;90.64
71573;BME280;59408;51.032;9.410;2023-01-31T01:27:37;99630.84;;;1.74;90.48
71573;BME280;59408;51.032;9.410;2023-01-31T01:30:05;99648.59;;;1.75;89.61
71573;BME280;59408;51.032;9.410;2023-01-31T01:32:32;99646.47;;;1.82;88.99
71573;BME280;59408;51.032;9.410;2023-01-31T01:34:58;99657.22;;;1.82;88.73
71573;BME280;59408;51.032;9.410;2023-01-31T01:37:25;99651.84;;;1.82;88.54
71573;BME280;59408;51.032;9.410;2023-01-31T01:39:52;99657.22;;;1.82;88.66
71573;BME280;59408;51.032;9.410;2023-01-31T01:42:21;99657.50;;;1.86;87.99
71573;BME280;59408;51.032;9.410;2023-01-31T01:44:50;99653.22;;;1.90;87.60
71573;BME280;59408;51.032;9.410;2023-01-31T01:47:22;99652.41;;;1.89;87.60
71573;BME280;59408;51.032;9.410;2023-01-31T01:49:54;99650.25;;;1.91;86.77
71573;BME280;59408;51.032;9.410;2023-01-31T01:52:24;99648.38;;;1.97;86.16
71573;BME280;59408;51.032;9.410;2023-01-31T01:54:54;99636.00;;;1.91;86.63
71573;BME280;59408;51.032;9.410;2023-01-31T01:57:26;99634.09;;;1.91;86.12
71573;BME280;59408;51.032;9.410;2023-01-31T02:00:02;99637.34;;;1.93;85.94
71573;BME280;59408;51.032;9.410;2023-01-31T02:02:33;99633.56;;;1.94;85.68
71573;BME280;59408;51.032;9.410;2023-01-31T02:04:59;99633.59;;;1.89;85.81
71573;BME280;59408;51.032;9.410;2023-01-31T02:07:26;99632.22;;;1.92;84.92
71573;BME280;59408;51.032;9.410;2023-01-31T02:09:58;99636.25;;;1.84;85.12
71573;BME280;59408;51.032;9.410;2023-01-31T02:12:30;99638.69;;;1.81;85.92
71573;BME280;59408;51.032;9.410;2023-01-31T02:14:57;99643.78;;;1.77;85.28
71573;BME280;59408;51.032;9.410;2023-01-31T02:17:24;99649.97;;;1.73;85.54
71573;BME280;59408;51.032;9.410;2023-01-31T02:20:02;99662.59;;;1.72;85.69
71573;BME280;59408;51.032;9.410;2023-01-31T02:22:35;99662.59;;;1.72;86.19
71573;BME280;59408;51.032;9.410;2023-01-31T02:25:37;99664.75;;;1.70;85.96
71573;BME280;59408;51.032;9.410;2023-01-31T02:28:31;99662.31;;;1.74;85.43
71573;BME280;59408;51.032;9.410;2023-01-31T02:31:27;99658.81;;;1.68;85.60
71573;BME280;59408;51.032;9.410;2023-01-31T02:34:03;99659.63;;;1.69;85.81
71573;BME280;59408;51.032;9.410;2023-01-31T02:36:41;99665.25;;;1.67;85.65
71573;BME280;59408;51.032;9.410;2023-01-31T02:39:22;99656.66;;;1.60;86.46
71573;BME280;59408;51.032;9.410;2023-01-31T02:41:55;99653.41;;;1.58;86.34
71573;BME280;59408;51.032;9.410;2023-01-31T02:44:28;99676.53;;;1.59;86.39
71573;BME280;59408;51.032;9.410;2023-01-31T02:46:59;99675.97;;;1.57;86.86
71573;BME280;59408;51.032;9.410;2023-01-31T02:49:35;99686.72;;;1.52;87.55
71573;BME280;59408;51.032;9.410;2023-01-31T02:52:16;99682.94;;;1.48;88.36
71573;BME280;59408;51.032;9.410;2023-01-31T02:54:57;99682.63;;;1.39;88.75
71573;BME280;59408;51.032;9.410;2023-01-31T02:57:26;99692.31;;;1.35;89.72
71573;BME280;59408;51.032;9.410;2023-01-31T02:59:53;99698.47;;;1.31;90.55
71573;BME280;59408;51.032;9.410;2023-01-31T03:02:21;99702.81;;;1.37;90.75
71573;BME280;59408;51.032;9.410;2023-01-31T03:04:50;99696.06;;;1.34;91.20
71573;BME280;59408;51.032;9.410;2023-01-31T03:07:19;99701.44;;;1.34;92.14
71573;BME280;59408;51.032;9.410;2023-01-31T03:09:59;99704.94;;;1.35;92.32
71573;BME280;59408;51.032;9.410;2023-01-31T03:12:49;99704.66;;;1.31;92.92
71573;BME280;59408;51.032;9.410;2023-01-31T03:15:26;99706.53;;;1.31;92.87
71573;BME280;59408;51.032;9.410;2023-01-31T03:17:59;99706.78;;;1.29;93.56
71573;BME280;59408;51.032;9.410;2023-01-31T03:20:31;99703.03;;;1.30;93.49
71573;BME280;59408;51.032;9.410;2023-01-31T03:23:04;99705.69;;;1.25;93.84
71573;BME280;59408;51.032;9.410;2023-01-31T03:25:33;99708.38;;;1.25;94.03
71573;BME280;59408;51.032;9.410;2023-01-31T03:28:03;99708.13;;;1.27;94.32
71573;BME280;59408;51.032;9.410;2023-01-31T03:30:35;99707.28;;;1.21;94.50
71573;BME280;59408;51.032;9.410;2023-01-31T03:33:05;99713.19;;;1.23;94.43
71573;BME280;59408;51.032;9.410;2023-01-31T03:35:36;99710.78;;;1.21;94.72
71573;BME280;59408;51.032;9.410;2023-01-31T03:38:10;99712.91;;;1.19;94.86
71573;BME280;59408;51.032;9.410;2023-01-31T03:40:40;99707.00;;;1.17;95.22
71573;BME280;59408;51.032;9.410;2023-01-31T03:43:13;99706.97;;;1.12;95.63
71573;BME280;59408;51.032;9.410;2023-01-31T03:45:43;99704.84;;;1.14;95.34
71573;BME280;59408;51.032;9.410;2023-01-31T03:48:12;99709.09;;;1.10;95.94
71573;BME280;59408;51.032;9.410;2023-01-31T03:50:45;99711.53;;;1.12;95.65
71573;BME280;59408;51.032;9.410;2023-01-31T03:53:16;99707.50;;;1.09;95.96
71573;BME280;59408;51.032;9.410;2023-01-31T03:55:48;99698.09;;;1.12;96.12
71573;BME280;59408;51.032;9.410;2023-01-31T03:58:17;99697.03;;;1.13;95.72
71573;BME280;59408;51.032;9.410;2023-01-31T04:00:47;99709.09;;;1.10;95.83
71573;BME280;59408;51.032;9.410;2023-01-31T04:03:27;99698.91;;;1.12;95.43
71573;BME280;59408;51.032;9.410;2023-01-31T04:05:57;99692.47;;;1.13;95.12
71573;BME280;59408;51.032;9.410;2023-01-31T04:08:24;99691.66;;;1.13;95.05
71573;BME280;59408;51.032;9.410;2023-01-31T04:10:50;99682.81;;;1.17;94.50
71573;BME280;59408;51.032;9.410;2023-01-31T04:13:17;99697.59;;;1.15;94.74
71573;BME280;59408;51.032;9.410;2023-01-31T04:15:43;99694.09;;;1.14;94.52
71573;BME280;59408;51.032;9.410;2023-01-31T04:18:10;99692.75;;;1.17;94.31
71573;BME280;59408;51.032;9.410;2023-01-31T04:20:37;99695.72;;;1.15;94.38
71573;BME280;59408;51.032;9.410;2023-01-31T04:23:05;99684.41;;;1.13;94.21
71573;BME280;59408;51.032;9.410;2023-01-31T04:25:32;99686.28;;;1.13;94.28
71573;BME280;59408;51.032;9.410;2023-01-31T04:27:59;99688.41;;;1.11;94.29
71573;BME280;59408;51.032;9.410;2023-01-31T04:30:25;99697.31;;;1.16;93.45
71573;BME280;59408;51.032;9.410;2023-01-31T04:32:52;99689.00;;;1.18;93.41
71573;BME280;59408;51.032;9.410;2023-01-31T04:35:19;99679.03;;;1.13;93.64
71573;BME280;59408;51.032;9.410;2023-01-31T04:37:46;99682.53;;;1.14;93.98
71573;BME280;59408;51.032;9.410;2023-01-31T04:40:14;99680.41;;;1.16;93.35
71573;BME280;59408;51.032;9.410;2023-01-31T04:42:41;99674.97;;;1.11;94.10
71573;BME280;59408;51.032;9.410;2023-01-31T04:45:08;99681.41;;;1.10;94.51
71573;BME280;59408;51.032;9.410;2023-01-31T04:47:35;99681.41;;;1.05;94.93
71573;BME280;59408;51.032;9.410;2023-01-31T04:50:03;99689.16;;;1.01;95.59
71573;BME280;59408;51.032;9.410;2023-01-31T04:52:30;99685.16;;;0.99;96.05
71573;BME280;59408;51.032;9.410;2023-01-31T04:54:57;99682.13;;;0.90;96.65
71573;BME280;59408;51.032;9.410;2023-01-31T04:57:25;99687.47;;;0.85;97.25
71573;BME280;59408;51.032;9.410;2023-01-31T04:59:52;99704.63;;;0.84;97.42
71573;BME280;59408;51.032;9.410;2023-01-31T05:02:18;99691.22;;;0.84;97.09
71573;BME280;59408;51.032;9.410;2023-01-31T05:04:45;99693.09;;;0.83;97.32
71573;BME280;59408;51.032;9.410;2023-01-31T05:07:11;99687.19;;;0.81;97.69
71573;BME280;59408;51.032;9.410;2023-01-31T05:09:38;99694.16;;;0.82;97.50
71573;BME280;59408;51.032;9.410;2023-01-31T05:12:05;99694.44;;;0.81;97.38
71573;BME280;59408;51.032;9.410;2023-01-31T05:14:33;99678.59;;;0.84;97.58
71573;BME280;59408;51.032;9.410;2023-01-31T05:17:00;99673.22;;;0.79;97.71
71573;BME280;59408;51.032;9.410;2023-01-31T05:19:26;99677.75;;;0.79;97.85
71573;BME280;59408;51.032;9.410;2023-01-31T05:21:53;99666.47;;;0.77;97.90
71573;BME280;59408;51.032;9.410;2023-01-31T05:24:20;99660.00;;;0.73;97.98
71573;BME280;59408;51.032;9.410;2023-01-31T05:26:46;99663.22;;;0.70;97.94
71573;BME280;59408;51.032;9.410;2023-01-31T05:29:13;99646.78;;;0.66;98.29
71573;BME280;59408;51.032;9.410;2023-01-31T05:31:44;99647.06;;;0.65;98.74
71573;BME280;59408;51.032;9.410;2023-01-31T05:34:11;99653.78;;;0.67;98.63
71573;BME280;59408;51.032;9.410;2023-01-31T05:36:37;99667.47;;;0.66;98.74
71573;BME280;59408;51.032;9.410;2023-01-31T05:39:04;99668.03;;;0.68;98.77
71573;BME280;59408;51.032;9.410;2023-01-31T05:41:31;99669.38;;;0.70;98.40
71573;BME280;59408;51.032;9.410;2023-01-31T05:43:57;99685.50;;;0.75;98.60
71573;BME280;59408;51.032;9.410;2023-01-31T05:46:24;99675.03;;;0.74;98.65
71573;BME280;59408;51.032;9.410;2023-01-31T05:48:52;99682.56;;;0.72;98.86
71573;BME280;59408;51.032;9.410;2023-01-31T05:51:18;99684.97;;;0.73;98.85
71573;BME280;59408;51.032;9.410;2023-01-31T05:53:45;99673.16;;;0.74;98.91
71573;BME280;59408;51.032;9.410;2023-01-31T05:56:12;99670.19;;;0.71;99.09
71573;BME280;59408;51.032;9.410;2023-01-31T05:58:38;99670.19;;;0.71;99.18
71573;BME280;59408;51.032;9.410;2023-01-31T06:01:05;99665.84;;;0.65;99.23
71573;BME280;59408;51.032;9.410;2023-01-31T06:03:31;99670.19;;;0.71;98.93
71573;BME280;59408;51.032;9.410;2023-01-31T06:06:00;99670.22;;;0.76;98.73
71573;BME280;59408;51.032;9.410;2023-01-31T06:08:27;99669.41;;;0.75;98.81
71573;BME280;59408;51.032;9.410;2023-01-31T06:10:53;99668.59;;;0.75;98.63
71573;BME280;59408;51.032;9.410;2023-01-31T06:13:20;99661.88;;;0.72;98.72
71573;BME280;59408;51.032;9.410;2023-01-31T06:15:48;99674.22;;;0.73;98.48
71573;BME280;59408;51.032;9.410;2023-01-31T06:18:14;99673.97;;;0.75;98.20
71573;BME280;59408;51.032;9.410;2023-01-31T06:20:41;99671.03;;;0.76;98.10
71573;BME280;59408;51.032;9.410;2023-01-31T06:23:09;99663.75;;;0.72;98.31
71573;BME280;59408;51.032;9.410;2023-01-31T06:25:36;99667.72;;;0.64;98.81
71573;BME280;59408;51.032;9.410;2023-01-31T06:28:02;99649.22;;;0.63;98.77
71573;BME280;59408;51.032;9.410;2023-01-31T06:30:29;99661.00;;;0.62;98.94
71573;BME280;59408;51.032;9.410;2023-01-31T06:32:58;99662.63;;;0.63;99.23
71573;BME280;59408;51.032;9.410;2023-01-31T06:35:24;99674.44;;;0.67;98.93
71573;BME280;59408;51.032;9.410;2023-01-31T06:37:51;99663.22;;;0.70;98.75
71573;BME280;59408;51.032;9.410;2023-01-31T06:40:19;99668.28;;;0.66;99.00
71573;BME280;59408;51.032;9.410;2023-01-31T06:42:46;99669.91;;;0.67;99.32
71573;BME280;59408;51.032;9.410;2023-01-31T06:45:13;99672.34;;;0.74;98.94
71573;BME280;59408;51.032;9.410;2023-01-31T06:47:39;99677.72;;;0.74;99.27
71573;BME280;59408;51.032;9.410;2023-01-31T06:50:06;99674.78;;;0.75;98.82
71573;BME280;59408;51.032;9.410;2023-01-31T06:52:33;99671.84;;;0.77;99.05
71573;BME280;59408;51.032;9.410;2023-01-31T06:54:59;99678.84;;;0.83;98.73
71573;BME280;59408;51.032;9.410;2023-01-31T06:57:27;99681.00;;;0.81;99.15
71573;BME280;59408;51.032;9.410;2023-01-31T06:59:54;99678.28;;;0.76;99.16
71573;BME280;59408;51.032;9.410;2023-01-31T07:02:20;99678.28;;;0.76;99.46
71573;BME280;59408;51.032;9.410;2023-01-31T07:04:47;99684.19;;;0.73;99.56
71573;BME280;59408;51.032;9.410;2023-01-31T07:07:14;99682.81;;;0.70;99.72
71573;BME280;59408;51.032;9.410;2023-01-31T07:09:40;99675.31;;;0.72;100.00
71573;BME280;59408;51.032;9.410;2023-01-31T07:12:07;99676.63;;;0.70;100.00
71573;BME280;59408;51.032;9.410;2023-01-31T07:14:35;99670.97;;;0.66;100.00
71573;BME280;59408;51.032;9.410;2023-01-31T07:17:01;99668.03;;;0.68;100.00
71573;BME280;59408;51.032;9.410;2023-01-31T07:19:28;99654.84;;;0.66;100.00
71573;BME280;59408;51.032;9.410;2023-01-31T07:21:55;99655.09;;;0.65;100.00
71573;BME280;59408;51.032;9.410;2023-01-31T07:24:22;99656.22;;;0.69;100.00
71573;BME280;59408;51.032;9.410;2023-01-31T07:26:50;99649.00;;;0.74;100.00
71573;BME280;59408;51.032;9.410;2023-01-31T07:29:18;99660.09;;;0.88;100.00
71573;BME280;59408;51.032;9.410;2023-01-31T07:31:46;99656.38;;;0.94;100.00
71573;BME280;59408;51.032;9.410;2023-01-31T07:34:13;99655.28;;;0.95;100.00
71573;BME280;59408;51.032;9.410;2023-01-31T07:36:39;99653.44;;;1.01;99.46
71573;BME280;59408;51.032;9.410;2023-01-31T07:39:06;99649.97;;;1.00;99.85
71573;BME280;59408;51.032;9.410;2023-01-31T07:41:32;99649.44;;;1.03;100.00
71573;BME280;59408;51.032;9.410;2023-01-31T07:44:01;99649.69;;;1.02;100.00
71573;BME280;59408;51.032;9.410;2023-01-31T07:46:28;99652.41;;;1.07;99.85
71573;BME280;59408;51.032;9.410;2023-01-31T07:48:56;99649.47;;;1.08;100.00
71573;BME280;59408;51.032;9.410;2023-01-31T07:51:23;99647.03;;;1.12;100.00
71573;BME280;59408;51.032;9.410;2023-01-31T07:53:49;99649.78;;;1.17;99.94
71573;BME280;59408;51.032;9.410;2023-01-31T07:56:17;99644.66;;;1.15;99.89
71573;BME280;59408;51.032;9.410;2023-01-31T07:58:46;99648.97;;;1.16;99.89
71573;BME280;59408;51.032;9.410;2023-01-31T08:01:14;99647.63;;;1.19;99.84
71573;BME280;59408;51.032;9.410;2023-01-31T08:03:41;99633.66;;;1.22;99.58
71573;BME280;59408;51.032;9.410;2023-01-31T08:06:11;99630.44;;;1.20;99.74
71573;BME280;59408;51.032;9.410;2023-01-31T08:08:39;99635.78;;;1.20;99.13
71573;BME280;59408;51.032;9.410;2023-01-31T08:11:06;99636.59;;;1.20;99.43
71573;BME280;59408;51.032;9.410;2023-01-31T08:13:35;99641.47;;;1.18;99.47
71573;BME280;59408;51.032;9.410;2023-01-31T08:16:03;99640.91;;;1.21;98.99
71573;BME280;59408;51.032;9.410;2023-01-31T08:18:31;99641.16;;;1.20;99.10
71573;BME280;59408;51.032;9.410;2023-01-31T08:20:58;99647.09;;;1.22;98.71
71573;BME280;59408;51.032;9.410;2023-01-31T08:23:27;99636.09;;;1.29;98.50
71573;BME280;59408;51.032;9.410;2023-01-31T08:25:58;99655.19;;;1.27;98.27
71573;BME280;59408;51.032;9.410;2023-01-31T08:28:25;99645.53;;;1.31;98.09
71573;BME280;59408;51.032;9.410;2023-01-31T08:30:52;99649.56;;;1.34;98.06
71573;BME280;59408;51.032;9.410;2023-01-31T08:33:37;99636.41;;;1.32;98.26
71573;BME280;59408;51.032;9.410;2023-01-31T08:36:09;99641.50;;;1.34;98.20
71573;BME280;59408;51.032;9.410;2023-01-31T08:38:37;99635.88;;;1.35;98.17
71573;BME280;59408;51.032;9.410;2023-01-31T08:41:05;99624.31;;;1.35;97.83
71573;BME280;59408;51.032;9.410;2023-01-31T08:43:32;99620.00;;;1.39;97.85
71573;BME280;59408;51.032;9.410;2023-01-31T08:46:08;99622.44;;;1.35;98.48
71573;BME280;59408;51.032;9.410;2023-01-31T08:48:35;99628.88;;;1.34;98.60
71573;BME280;59408;51.032;9.410;2023-01-31T08:51:04;99631.81;;;1.33;98.55
71573;BME280;59408;51.032;9.410;2023-01-31T08:53:31;99626.97;;;1.30;98.12
71573;BME280;59408;51.032;9.410;2023-01-31T08:56:01;99632.38;;;1.35;98.13
71573;BME280;59408;51.032;9.410;2023-01-31T08:58:30;99642.31;;;1.34;98.13
71573;BME280;59408;51.032;9.410;2023-01-31T09:01:00;99642.56;;;1.33;98.38
71573;BME280;59408;51.032;9.410;2023-01-31T09:03:26;99646.59;;;1.30;98.65
71573;BME280;59408;51.032;9.410;2023-01-31T09:05:57;99630.22;;;1.32;98.65
71573;BME280;59408;51.032;9.410;2023-01-31T09:08:24;99612.22;;;1.32;98.53
71573;BME280;59408;51.032;9.410;2023-01-31T09:10:51;99622.97;;;1.37;98.12
71573;BME280;59408;51.032;9.410;2023-01-31T09:13:20;99602.00;;;1.39;98.04
71573;BME280;59408;51.032;9.410;2023-01-31T09:15:48;99600.41;;;1.43;97.77
71573;BME280;59408;51.032;9.410;2023-01-31T09:18:22;99598.28;;;1.50;97.54
71573;BME280;59408;51.032;9.410;2023-01-31T09:20:49;99599.09;;;1.56;96.96
71573;BME280;59408;51.032;9.410;2023-01-31T09:23:15;99597.25;;;1.61;97.32
71573;BME280;59408;51.032;9.410;2023-01-31T09:25:42;99597.50;;;1.60;97.48
71573;BME280;59408;51.032;9.410;2023-01-31T09:28:13;99597.75;;;1.58;96.81
71573;BME280;59408;51.032;9.410;2023-01-31T09:30:41;99594.25;;;1.58;97.04
71573;BME280;59408;51.032;9.410;2023-01-31T09:33:08;99592.66;;;1.62;96.63
71573;BME280;59408;51.032;9.410;2023-01-31T09:35:34;99589.16;;;1.61;96.88
71573;BME280;59408;51.032;9.410;2023-01-31T09:38:01;99574.09;;;1.66;96.41
71573;BME280;59408;51.032;9.410;2023-01-31T09:40:30;99587.53;;;1.66;96.37
71573;BME280;59408;51.032;9.410;2023-01-31T09:43:00;99571.41;;;1.66;96.70
71573;BME280;59408;51.032;9.410;2023-01-31T09:45:31;99570.91;;;1.63;96.45
71573;BME280;59408;51.032;9.410;2023-01-31T09:48:01;99569.78;;;1.64;96.32
71573;BME280;59408;51.032;9.410;2023-01-31T09:50:32;99574.09;;;1.66;96.71
71573;BME280;59408;51.032;9.410;2023-01-31T09:53:00;99571.69;;;1.64;96.24
71573;BME280;59408;51.032;9.410;2023-01-31T09:55:31;99565.22;;;1.65;96.59
71573;BME280;59408;51.032;9.410;2023-01-31T09:58:06;99562.81;;;1.69;96.39
71573;BME280;59408;51.032;9.410;2023-01-31T10:00:42;99563.38;;;1.71;96.03
71573;BME280;59408;51.032;9.410;2023-01-31T10:03:40;99558.25;;;1.74;96.02
71573;BME280;59408;51.032;9.410;2023-01-31T10:06:14;99562.31;;;1.72;95.91
71573;BME280;59408;51.032;9.410;2023-01-31T10:08:48;99568.50;;;1.72;95.75
71573;BME280;59408;51.032;9.410;2023-01-31T10:11:23;99547.22;;;1.66;96.39
71573;BME280;59408;51.032;9.410;2023-01-31T10:13:55;99559.34;;;1.63;96.06
71573;BME280;59408;51.032;9.410;2023-01-31T10:16:27;99568.22;;;1.63;95.96
71573;BME280;59408;51.032;9.410;2023-01-31T10:19:01;99565.22;;;1.60;96.21
71573;BME280;59408;51.032;9.410;2023-01-31T10:21:33;99556.63;;;1.58;96.32
71573;BME280;59408;51.032;9.410;2023-01-31T10:24:03;99560.13;;;1.58;96.68
71573;BME280;59408;51.032;9.410;2023-01-31T10:26:35;99553.94;;;1.53;96.77
71573;BME280;59408;51.032;9.410;2023-01-31T10:29:10;99552.31;;;1.52;97.06
71573;BME280;59408;51.032;9.410;2023-01-31T10:31:42;99563.59;;;1.49;96.76
71573;BME280;59408;51.032;9.410;2023-01-31T10:34:14;99540.75;;;1.46;96.77
71573;BME280;59408;51.032;9.410;2023-01-31T10:36:45;99527.59;;;1.45;96.85
71573;BME280;59408;51.032;9.410;2023-01-31T10:39:19;99524.09;;;1.44;96.61
71573;BME280;59408;51.032;9.410;2023-01-31T10:42:02;99516.28;;;1.48;96.67
71573;BME280;59408;51.032;9.410;2023-01-31T10:44:39;99521.91;;;1.46;96.94
71573;BME280;59408;51.032;9.410;2023-01-31T10:47:11;99534.59;;;1.46;96.63
71573;BME280;59408;51.032;9.410;2023-01-31T10:49:40;99533.47;;;1.47;96.88
71573;BME280;59408;51.032;9.410;2023-01-31T10:52:25;99523.53;;;1.47;96.62
71573;BME280;59408;51.032;9.410;2023-01-31T10:55:04;99532.69;;;1.51;96.54
71573;BME280;59408;51.032;9.410;2023-01-31T10:57:37;99532.44;;;1.53;96.68
71573;BME280;59408;51.032;9.410;2023-01-31T11:00:05;99525.19;;;1.53;96.61
71573;BME280;59408;51.032;9.410;2023-01-31T11:02:32;99514.16;;;1.50;96.96
71573;BME280;59408;51.032;9.410;2023-01-31T11:05:00;99527.88;;;1.53;97.12
71573;BME280;59408;51.032;9.410;2023-01-31T11:07:29;99520.06;;;1.52;96.99
71573;BME280;59408;51.032;9.410;2023-01-31T11:09:56;99513.88;;;1.51;96.68
71573;BME280;59408;51.032;9.410;2023-01-31T11:12:39;99504.47;;;1.54;96.45
71573;BME280;59408;51.032;9.410;2023-01-31T11:15:14;99493.44;;;1.55;96.55
71573;BME280;59408;51.032;9.410;2023-01-31T11:17:41;99484.03;;;1.58;96.00
71573;BME280;59408;51.032;9.410;2023-01-31T11:20:20;99498.56;;;1.57;96.41
71573;BME280;59408;51.032;9.410;2023-01-31T11:22:50;99462.00;;;1.61;96.77
71573;BME280;59408;51.032;9.410;2023-01-31T11:25:19;99467.91;;;1.58;96.88
71573;BME280;59408;51.032;9.410;2023-01-31T11:27:46;99462.78;;;1.56;97.55
71573;BME280;59408;51.032;9.410;2023-01-31T11:30:20;99482.41;;;1.57;97.44
71573;BME280;59408;51.032;9.410;2023-01-31T11:32:48;99476.22;;;1.56;98.03
71573;BME280;59408;51.032;9.410;2023-01-31T11:35:25;99464.97;;;1.54;98.64
71573;BME280;59408;51.032;9.410;2023-01-31T11:37:54;99465.47;;;1.56;98.39
71573;BME280;59408;51.032;9.410;2023-01-31T11:40:26;99445.88;;;1.61;98.31
71573;BME280;59408;51.032;9.410;2023-01-31T11:42:55;99449.63;;;1.60;98.31
71573;BME280;59408;51.032;9.410;2023-01-31T11:45:24;99437.53;;;1.62;97.97
71573;BME280;59408;51.032;9.410;2023-01-31T11:47:53;99449.34;;;1.67;97.63
71573;BME280;59408;51.032;9.410;2023-01-31T11:50:23;99425.16;;;1.72;97.38
71573;BME280;59408;51.032;9.410;2023-01-31T11:52:55;99412.78;;;1.76;97.51
71573;BME280;59408;51.032;9.410;2023-01-31T11:55:22;99399.34;;;1.81;96.98
71573;BME280;59408;51.032;9.410;2023-01-31T11:57:55;99396.06;;;1.84;96.47
71573;BME280;59408;51.032;9.410;2023-01-31T12:00:25;99391.78;;;1.83;96.87
71573;BME280;59408;51.032;9.410;2023-01-31T12:02:58;99391.25;;;1.86;97.52
71573;BME280;59408;51.032;9.410;2023-01-31T12:05:35;99376.97;;;1.85;97.30
71573;BME280;59408;51.032;9.410;2023-01-31T12:08:02;99368.66;;;1.87;97.15
71573;BME280;59408;51.032;9.410;2023-01-31T12:10:40;99373.22;;;1.86;96.36
71573;BME280;59408;51.032;9.410;2023-01-31T12:13:13;99365.69;;;1.88;96.26
71573;BME280;59408;51.032;9.410;2023-01-31T12:15:49;99364.03;;;1.92;96.33
71573;BME280;59408;51.032;9.410;2023-01-31T12:18:22;99342.53;;;1.92;96.02
71573;BME280;59408;51.032;9.410;2023-01-31T12:21:02;99353.28;;;1.97;96.62
71573;BME280;59408;51.032;9.410;2023-01-31T12:23:38;99349.78;;;1.97;96.56
71573;BME280;59408;51.032;9.410;2023-01-31T12:26:10;99336.88;;;1.99;95.44
71573;BME280;59408;51.032;9.410;2023-01-31T12:28:49;99328.50;;;2.00;95.67
71573;BME280;59408;51.032;9.410;2023-01-31T12:31:34;99323.66;;;2.08;95.42
71573;BME280;59408;51.032;9.410;2023-01-31T12:37:08;99313.13;;;2.11;95.29
71573;BME280;59408;51.032;9.410;2023-01-31T12:39:47;99328.47;;;2.11;95.43
71573;BME280;59408;51.032;9.410;2023-01-31T12:42:35;99307.75;;;2.11;95.48
71573;BME280;59408;51.032;9.410;2023-01-31T12:45:17;99291.88;;;2.10;95.59
71573;BME280;59408;51.032;9.410;2023-01-31T12:48:06;99320.66;;;2.14;95.21
71573;BME280;59408;51.032;9.410;2023-01-31T12:50:42;99321.69;;;2.23;95.20
71573;BME280;59408;51.032;9.410;2023-01-31T12:53:35;99321.41;;;2.25;95.64
71573;BME280;59408;51.032;9.410;2023-01-31T12:59:04;99311.47;;;2.20;95.85
71573;BME280;59408;51.032;9.410;2023-01-31T13:01:47;99314.44;;;2.24;96.50
71573;BME280;59408;51.032;9.410;2023-01-31T13:04:25;99320.56;;;2.29;95.65
71573;BME280;59408;51.032;9.410;2023-01-31T13:06:57;99336.50;;;2.26;95.59
71573;BME280;59408;51.032;9.410;2023-01-31T13:09:29;99335.94;;;2.24;95.50
71573;BME280;59408;51.032;9.410;2023-01-31T13:11:59;99325.19;;;2.19;95.74
71573;BME280;59408;51.032;9.410;2023-01-31T13:14:31;99310.69;;;2.15;96.16
71573;BME280;59408;51.032;9.410;2023-01-31T13:17:01;99316.88;;;2.15;96.29
71573;BME280;59408;51.032;9.410;2023-01-31T13:19:33;99310.69;;;2.15;96.73
71573;BME280;59408;51.032;9.410;2023-01-31T13:22:06;99299.94;;;2.15;96.98
71573;BME280;59408;51.032;9.410;2023-01-31T13:24:38;99298.06;;;2.10;97.69
71573;BME280;59408;51.032;9.410;2023-01-31T13:27:10;99304.81;;;2.08;98.15
71573;BME280;59408;51.032;9.410;2023-01-31T13:29:44;99293.78;;;2.09;98.09
71573;BME280;59408;51.032;9.410;2023-01-31T13:32:17;99297.03;;;2.06;98.28